Fairfield Pond, Vermont
Current Conditions -  °F | °C
As of 7:15 AM on Monday 20 Oct 2014 (Local Time) from KFSO Reporting Station
Broken Clouds Broken Clouds  
Wind Chill: 35°   Ceiling: 12000
Heat Index: 35°   Visibility: 10mi
Dew Point: 26°   Wind: 0mph
Humidity: 69%   Direction: NA
Pressure: 29.99"   Gusts: NA
Location:  44.8776°N, 72.9201°W
Report Text: KFSO 201115Z AUTO 00000KT 10SM BKN120 02/M03 A2999 RMK AO2 T00181033
Loading
Personal Weather Stations






























Interactive Weather Map
Tropical Storm Tracking
New forecast layout! Learn more

10-Day Weather Forecast

Advertisements
Track Severe Weather on mobile